• Join FlightAware (Why Join?)
  • Login
  • US Flag 
Trick or treat! (Boo!!) 
05:28AM EDT


 

Airport Tracker/Info


-or-


 

Live Flight TrackerFlight Track Log ✈ EJA929 ✈ 25-Feb-2014 ✈ KLAS - KSLC

Flight Track Log - Related Links

Times and Time Zones

All times are in EST time to prevent confusion due to time zone crossing. See the EJA929 flight status page for this flight to view local times or setup timezone preferences in your user account.

Time Position Orientation Groundspeed Altitude Reporting Facility
EST Latitude Longitude Course Direction KTS MPH feet Rate Location/Type
05:38PM 36.0750 -115.1633 282° West 176 203 3,300  Level Los Angeles Center
05:39PM 36.0958 -115.2839 282° West 253 291 7,300 2,400 Climbing Salt Lake Center
05:41PM 36.1725 -115.2606 14° North 269 310 9,900 1,740 Climbing Los Angeles Center
05:42PM 36.1958 -115.1606 74° East 324 373 11,100 1,620 Climbing Los Angeles Center
05:43PM 36.1972 -115.0342 89° East 368 423 13,300 2,160 Climbing Los Angeles Center
05:44PM 36.1986 -114.9014 89° East 384 442 15,600 2,280 Climbing Los Angeles Center
05:45PM 36.2183 -114.7747 79° East 400 460 18,100 2,640 Climbing Los Angeles Center
05:46PM 36.3175 -114.6661 41° Northeast 401 461 21,100 2,520 Climbing Los Angeles Center
05:47PM 36.4092 -114.5794 37° Northeast 412 474 23,400 2,340 Climbing Los Angeles Center
05:48PM 36.5028 -114.4908 37° Northeast 422 486 26,000 2,100 Climbing Los Angeles Center
05:49PM 36.6056 -114.4053 34° Northeast 441 507 27,800 1,740 Climbing Los Angeles Center
05:50PM 36.7147 -114.3208 32° Northeast 459 528 29,700 1,500 Climbing Los Angeles Center
05:51PM 36.8300 -114.2325 32° Northeast 483 556 30,900 600 Climbing Los Angeles Center
05:52PM 36.9783 -114.1172 32° Northeast 521 600 31,000  Climbing Los Angeles Center
05:53PM 37.1039 -114.0200 32° Northeast 531 611 31,000  Level Los Angeles Center
05:54PM 37.2286 -113.9217 32° Northeast 531 611 31,000  Level Los Angeles Center
05:55PM 37.3603 -113.8172 32° Northeast 530 610 31,000  Level Los Angeles Center
05:56PM 37.4858 -113.7181 32° Northeast 531 611 31,000  Level Los Angeles Center
05:57PM 37.6111 -113.6175 32° Northeast 531 611 31,000  Level Los Angeles Center
05:58PM 37.7125 -113.5378 32° Northeast 535 616 31,000 -240 Level Salt Lake Center
05:59PM 37.8392 -113.4361 32° Northeast 535 616 30,600 -540 Descending Salt Lake Center
06:00PM 37.9647 -113.3356 32° Northeast 531 611 30,000 -300 Descending Salt Lake Center
06:01PM 38.1150 -113.2150 32° Northeast 529 609 30,000  Level Salt Lake Center
06:02PM 38.2411 -113.1144 32° Northeast 531 611 30,000  Level Salt Lake Center
06:03PM 38.3669 -113.0142 32° Northeast 532 612 30,000  Level Salt Lake Center
06:04PM 38.5033 -112.9386 23° Northeast 533 613 30,000  Level Salt Lake Center
06:05PM 38.6375 -112.8689 22° Northeast 525 604 30,000 -120 Level Salt Lake Center
06:06PM 38.7622 -112.8019 23° Northeast 497 572 29,800 -600 Descending Salt Lake Center
06:07PM 38.8856 -112.7356 23° Northeast 484 557 28,800 -1,020 Descending Salt Lake Center
06:08PM 39.0056 -112.6692 23° Northeast 473 544 27,800 -1,020 Descending Salt Lake Center
06:09PM 39.1261 -112.6022 23° Northeast 471 542 26,800 -1,080 Descending Salt Lake Center
06:10PM 39.2431 -112.5381 23° Northeast 423 487 25,700 -1,080 Descending Salt Lake Center
06:11PM 39.3450 -112.4861 22° Northeast 398 458 24,700 -1,320 Descending Salt Lake Center
06:12PM 39.4494 -112.4236 25° Northeast 410 472 23,000 -2,040 Descending Salt Lake Center
06:13PM 39.5683 -112.3553 24° Northeast 387 445 20,600 -2,160 Descending Salt Lake Center
06:14PM 39.6647 -112.2983 24° Northeast 381 438 18,600 -1,920 Descending Salt Lake Center
06:15PM 39.7592 -112.2439 24° Northeast 373 429 16,700 -1,740 Descending Salt Lake Center
06:16PM 39.8506 -112.1897 24° Northeast 362 417 15,100 -840 Descending Salt Lake Center
06:17PM 39.9286 -112.1567 18° North 294 338 15,100  Level Salt Lake Center
06:17PM 39.9286 -112.1464 90° East 300 345 15,100 -180 Level Salt Lake Center
06:18PM 40.0019 -112.1125 19° North 376 433 15,000 -120 Descending Salt Lake Center
06:18PM 40.0189 -112.0908 44° Northeast 366 421 15,000 -1,680 Level Salt Lake Center
06:19PM 40.0936 -112.0539 21° North 364 419 13,300 -2,040 Descending Salt Lake Center
06:20PM 40.1100 -112.0364 39° Northeast 360 414 12,900 -2,460 Descending Salt Lake Center
06:20PM 40.1786 -112.0056 19° North 325 374 10,800 -2,460 Descending Salt Lake Center
06:21PM 40.1953 -111.9922 31° Northeast 330 380 10,400 -900 Descending Salt Lake Center
06:21PM 40.2558 -111.9825 North 301 346 10,000 -420 Descending Salt Lake Center
06:22PM 40.2914 -111.9642 21° North 291 335 10,000  Level Salt Lake Center
06:22PM 40.3247 -111.9592 North 276 318 10,000  Level Salt Lake Center
06:23PM 40.3642 -111.9417 19° North 269 310 10,000 60 Level Salt Lake Center
06:23PM 40.3953 -111.9353 North 260 299 10,100  Climbing Salt Lake Center
06:24PM 40.4350 -111.9192 17° North 263 303 10,000 -120 Descending Salt Lake Center
06:24PM 40.4833 -111.9336 347° North 231 266 10,000 -120 Level Salt Lake Center
06:25PM 40.4989 -111.9308 North 228 262 9,900 -1,140 Descending Salt Lake Center
06:25PM 40.5469 -111.9403 352° North 217 250 8,900 -1,260 Descending Salt Lake Center
06:26PM 40.5594 -111.9381 North 216 249 8,600 -1,560 Descending Salt Lake Center
06:26PM 40.5975 -111.9458 351° North 209 241 7,500 -1,620 Descending Salt Lake Center
06:27PM 40.6158 -111.9450 North 206 237 7,000 -1,500 Descending Salt Lake Center
06:27PM 40.6503 -111.9506 353° North 199 229 6,200 -840 Descending Salt Lake Center
06:28PM 40.6703 -111.9508 359° North 196 226 6,200 -420 Level Salt Lake Center
06:28PM 40.6967 -111.9572 350° North 163 188 5,800 -720 Descending Salt Lake Center
06:29PM 40.7119 -111.9547 North 155 178 5,500 -780 Descending Salt Lake Center
06:29PM 40.7322 -111.9622 344° North 140 161 5,100 -1,200 Descending Salt Lake Center